createdAt,value
2018-04-29T00:00:23.199Z,71.53
2018-04-29T00:01:27.793Z,71.64
2018-04-29T00:02:32.340Z,71.77
2018-04-29T00:03:37.375Z,71.90
2018-04-29T00:04:41.919Z,72.01
2018-04-29T00:05:46.430Z,72.19
2018-04-29T00:06:50.993Z,72.31
2018-04-29T00:07:55.566Z,72.35
2018-04-29T00:09:00.085Z,72.47
2018-04-29T00:10:05.017Z,72.63
2018-04-29T00:11:09.540Z,72.75
2018-04-29T00:12:14.068Z,72.95
2018-04-29T00:13:18.644Z,72.98
2018-04-29T00:14:23.229Z,72.95
2018-04-29T00:15:27.732Z,72.94
2018-04-29T00:16:32.742Z,73.07
2018-04-29T00:17:37.258Z,73.16
2018-04-29T00:18:41.794Z,73.28
2018-04-29T00:19:46.424Z,73.39
2018-04-29T00:20:51.005Z,73.52
2018-04-29T00:21:55.402Z,73.77
2018-04-29T00:23:00.237Z,73.85
2018-04-29T00:24:04.728Z,73.90
2018-04-29T00:25:09.249Z,73.86
2018-04-29T00:26:13.802Z,73.81
2018-04-29T00:27:18.281Z,73.89
2018-04-29T00:28:22.759Z,73.95
2018-04-29T00:29:27.639Z,73.98
2018-04-29T00:30:32.152Z,74.08
2018-04-29T00:31:36.716Z,74.19
2018-04-29T00:32:41.841Z,74.17
2018-04-29T00:33:46.402Z,74.25
2018-04-29T00:34:50.921Z,74.44
2018-04-29T00:35:55.798Z,74.47
2018-04-29T00:37:00.406Z,74.41
2018-04-29T00:38:05.092Z,74.35
2018-04-29T00:39:09.621Z,74.44
2018-04-29T00:40:14.516Z,74.50
2018-04-29T00:41:19.152Z,74.61
2018-04-29T00:42:24.126Z,74.61
2018-04-29T00:43:28.687Z,74.56
2018-04-29T00:44:33.359Z,74.43
2018-04-29T00:45:38.079Z,74.52
2018-04-29T00:46:42.634Z,74.49
2018-04-29T00:47:47.196Z,74.38
2018-04-29T00:48:52.101Z,74.51
2018-04-29T00:49:56.536Z,74.66
2018-04-29T00:51:00.977Z,74.73
2018-04-29T00:52:07.456Z,74.78
2018-04-29T00:53:11.928Z,74.89
2018-04-29T00:54:16.408Z,75.03
2018-04-29T00:55:21.780Z,75.08
2018-04-29T00:56:26.398Z,75.12
2018-04-29T00:57:30.852Z,75.21
2018-04-29T00:58:35.327Z,75.36
2018-04-29T00:59:39.807Z,75.51
2018-04-29T01:00:44.436Z,75.69
2018-04-29T01:01:49.362Z,75.72
2018-04-29T01:02:54.021Z,75.73
2018-04-29T01:03:58.603Z,75.81
2018-04-29T01:05:03.329Z,75.85
2018-04-29T01:06:08.786Z,75.99
2018-04-29T01:07:13.343Z,76.13
2018-04-29T01:08:17.850Z,76.25
2018-04-29T01:09:22.401Z,76.37
2018-04-29T01:10:26.906Z,76.49
2018-04-29T01:11:31.407Z,76.58
2018-04-29T01:12:35.960Z,76.59
2018-04-29T01:13:40.834Z,76.63
2018-04-29T01:14:45.383Z,76.77
2018-04-29T01:15:49.953Z,76.87
2018-04-29T01:16:54.508Z,76.98
2018-04-29T01:17:58.936Z,77.11
2018-04-29T01:19:03.412Z,77.35
2018-04-29T01:20:07.766Z,77.46
2018-04-29T01:21:12.239Z,77.47
2018-04-29T01:22:16.672Z,77.61
2018-04-29T01:23:21.091Z,77.71
2018-04-29T01:24:25.479Z,77.78
2018-04-29T01:25:29.825Z,77.76
2018-04-29T01:26:34.595Z,77.66
2018-04-29T01:27:39.005Z,77.58
2018-04-29T01:28:43.428Z,77.64
2018-04-29T01:29:47.936Z,77.75
2018-04-29T01:30:52.399Z,77.79
2018-04-29T01:31:56.849Z,77.87
2018-04-29T01:33:01.760Z,78.00
2018-04-29T01:34:06.250Z,78.04
2018-04-29T01:35:10.713Z,77.97
2018-04-29T01:36:15.060Z,78.08
2018-04-29T01:37:19.404Z,78.10
2018-04-29T01:38:23.757Z,78.07
2018-04-29T01:39:28.598Z,78.05
2018-04-29T01:40:33.137Z,78.06
2018-04-29T01:41:37.589Z,78.06
2018-04-29T01:42:42.085Z,78.11
2018-04-29T01:43:46.532Z,78.20
2018-04-29T01:44:50.997Z,78.34
2018-04-29T01:45:55.895Z,78.41
2018-04-29T01:47:00.349Z,78.40
2018-04-29T01:48:04.775Z,78.53
2018-04-29T01:49:09.251Z,78.64
2018-04-29T01:50:24.466Z,78.74
2018-04-29T01:51:29.372Z,78.74
2018-04-29T01:52:33.836Z,78.74
2018-04-29T01:53:38.287Z,78.85
2018-04-29T01:54:42.784Z,78.99
2018-04-29T01:55:47.265Z,79.14
2018-04-29T01:56:51.732Z,79.20
2018-04-29T01:57:56.617Z,79.20
2018-04-29T01:59:01.053Z,79.12
2018-04-29T02:00:05.523Z,78.96
2018-04-29T02:01:10.062Z,79.02
2018-04-29T02:02:14.666Z,79.18
2018-04-29T02:03:19.256Z,79.33
2018-04-29T02:04:24.269Z,79.35
2018-04-29T02:05:28.839Z,79.28
2018-04-29T02:06:33.436Z,79.17
2018-04-29T02:07:38.043Z,79.13
2018-04-29T02:08:42.584Z,79.15
2018-04-29T02:09:47.075Z,79.22
2018-04-29T02:10:52.079Z,79.29
2018-04-29T02:11:56.652Z,79.31
2018-04-29T02:13:01.254Z,79.44
2018-04-29T02:14:05.853Z,79.53
2018-04-29T02:15:10.427Z,79.53
2018-04-29T02:16:15.055Z,79.76
2018-04-29T02:17:20.170Z,79.85
2018-04-29T02:18:24.717Z,79.96
2018-04-29T02:19:29.273Z,80.02
2018-04-29T02:20:33.869Z,80.10
2018-04-29T02:21:38.380Z,80.24
2018-04-29T02:22:42.892Z,80.19
2018-04-29T02:23:47.896Z,80.30
2018-04-29T02:24:52.463Z,80.52
2018-04-29T02:25:56.996Z,80.53
2018-04-29T02:27:01.629Z,80.68
2018-04-29T02:28:06.166Z,80.79
2018-04-29T02:29:10.721Z,80.84
2018-04-29T02:30:15.806Z,80.91
2018-04-29T02:31:20.413Z,80.90
2018-04-29T02:32:24.970Z,80.80
2018-04-29T02:33:29.540Z,80.70
2018-04-29T02:34:34.131Z,80.59
2018-04-29T02:35:38.701Z,80.50
2018-04-29T02:36:43.557Z,80.45
2018-04-29T02:37:48.046Z,80.39
2018-04-29T02:38:52.648Z,80.42
2018-04-29T02:39:57.214Z,80.40
2018-04-29T02:41:01.820Z,80.44
2018-04-29T02:42:06.401Z,80.50
2018-04-29T02:43:11.293Z,80.55
2018-04-29T02:44:15.832Z,80.56
2018-04-29T02:45:20.404Z,80.48
2018-04-29T02:46:24.881Z,80.45
2018-04-29T02:47:29.376Z,80.57
2018-04-29T02:48:33.864Z,80.75
2018-04-29T02:49:38.684Z,80.93
2018-04-29T02:50:43.215Z,81.05
2018-04-29T02:51:47.753Z,81.08
2018-04-29T02:52:52.267Z,81.14
2018-04-29T02:53:56.752Z,81.07
2018-04-29T02:55:01.285Z,81.07
2018-04-29T02:56:06.214Z,81.15
2018-04-29T02:57:10.705Z,81.17
2018-04-29T02:58:15.169Z,81.23
2018-04-29T02:59:19.684Z,81.15
2018-04-29T03:00:24.248Z,81.12
2018-04-29T03:01:28.856Z,80.98
2018-04-29T03:02:33.755Z,80.95
2018-04-29T03:03:38.239Z,81.02
2018-04-29T03:04:42.690Z,81.06
2018-04-29T03:05:47.212Z,81.12
2018-04-29T03:06:51.704Z,81.17
2018-04-29T03:07:56.252Z,81.24
2018-04-29T03:09:01.137Z,81.27
2018-04-29T03:10:05.624Z,81.29
2018-04-29T03:11:10.140Z,81.30
2018-04-29T03:12:14.673Z,81.34
2018-04-29T03:13:19.125Z,81.42
2018-04-29T03:14:23.621Z,81.49
2018-04-29T03:15:28.377Z,81.48
2018-04-29T03:16:32.902Z,81.46
2018-04-29T03:17:37.355Z,81.47
2018-04-29T03:18:41.795Z,81.50
2018-04-29T03:19:46.314Z,81.46
2018-04-29T03:20:50.802Z,81.47
2018-04-29T03:21:55.711Z,81.51
2018-04-29T03:23:00.153Z,81.52
2018-04-29T03:24:04.588Z,81.47
2018-04-29T03:25:09.073Z,81.40
2018-04-29T03:26:13.519Z,81.50
2018-04-29T03:27:17.924Z,81.64
2018-04-29T03:28:22.734Z,81.53
2018-04-29T03:29:27.260Z,81.60
2018-04-29T03:30:31.717Z,81.66
2018-04-29T03:31:36.213Z,81.59
2018-04-29T03:32:40.717Z,81.63
2018-04-29T03:33:45.245Z,81.61
2018-04-29T03:34:50.045Z,81.61
2018-04-29T03:35:54.612Z,81.63
2018-04-29T03:36:59.075Z,81.60
2018-04-29T03:38:03.568Z,81.50
2018-04-29T03:39:08.073Z,81.40
2018-04-29T03:40:12.600Z,81.28
2018-04-29T03:41:17.124Z,81.14
2018-04-29T03:42:21.594Z,81.10
2018-04-29T03:43:26.076Z,81.28
2018-04-29T03:44:30.554Z,81.43
2018-04-29T03:45:35.022Z,81.51
2018-04-29T03:48:09.264Z,81.62
2018-04-29T03:49:13.768Z,81.51
2018-04-29T03:50:18.234Z,81.49
2018-04-29T03:51:22.693Z,81.42
2018-04-29T03:52:27.149Z,81.27
2018-04-29T03:53:32.126Z,81.29
2018-04-29T03:54:36.624Z,81.33
2018-04-29T03:55:41.085Z,81.33
2018-04-29T03:56:45.565Z,81.28
2018-04-29T03:59:59.756Z,81.25
2018-04-29T04:03:16.518Z,81.29
2018-04-29T04:04:21.011Z,81.12
2018-04-29T04:05:25.557Z,80.99
2018-04-29T04:06:30.422Z,80.88
2018-04-29T04:07:34.982Z,80.98
2018-04-29T04:08:39.551Z,81.05
2018-04-29T04:09:44.104Z,81.05
2018-04-29T04:10:48.640Z,81.08
2018-04-29T04:11:53.174Z,81.21
2018-04-29T04:12:58.098Z,81.28
2018-04-29T04:14:02.645Z,81.19
2018-04-29T04:15:07.190Z,81.12
2018-04-29T04:16:11.655Z,81.17
2018-04-29T04:17:16.201Z,81.24
2018-04-29T04:18:21.110Z,81.31
2018-04-29T04:19:25.669Z,81.31
2018-04-29T04:20:30.268Z,81.26
2018-04-29T04:21:34.850Z,81.19
2018-04-29T04:22:39.360Z,81.10
2018-04-29T04:23:43.938Z,81.09
2018-04-29T04:24:48.977Z,80.92
2018-04-29T04:25:53.549Z,80.85
2018-04-29T04:26:58.109Z,80.85
2018-04-29T04:28:02.674Z,80.81
2018-04-29T04:29:07.227Z,80.91
2018-04-29T04:30:11.842Z,81.01
2018-04-29T04:31:16.844Z,80.95
2018-04-29T04:32:21.420Z,80.89
2018-04-29T04:33:26.088Z,80.97
2018-04-29T04:34:31.000Z,81.02
2018-04-29T04:35:35.519Z,81.10
2018-04-29T04:36:40.294Z,81.08
2018-04-29T04:37:45.539Z,81.11
2018-04-29T04:38:50.124Z,81.07
2018-04-29T04:39:54.694Z,81.10
2018-04-29T04:40:59.175Z,81.24
2018-04-29T04:42:03.733Z,81.10
2018-04-29T04:43:08.181Z,81.07
2018-04-29T04:44:13.078Z,81.11
2018-04-29T04:45:17.719Z,81.20
2018-04-29T04:46:22.842Z,81.25
2018-04-29T04:47:28.290Z,81.23
2018-04-29T04:48:32.873Z,81.22
2018-04-29T04:49:37.396Z,81.16
2018-04-29T04:50:42.534Z,81.12
2018-04-29T04:51:47.090Z,81.13
2018-04-29T04:52:51.667Z,81.16
2018-04-29T04:53:57.039Z,81.05
2018-04-29T04:55:01.580Z,80.96
2018-04-29T04:56:06.180Z,80.94
2018-04-29T04:57:11.130Z,80.97
2018-04-29T04:58:15.713Z,80.87
2018-04-29T04:59:20.269Z,80.90
2018-04-29T05:00:24.822Z,80.98
2018-04-29T05:01:29.396Z,80.98
2018-04-29T05:02:33.967Z,80.98
2018-04-29T05:03:39.042Z,81.02
2018-04-29T05:04:43.599Z,81.04
2018-04-29T05:05:48.155Z,81.03
2018-04-29T05:06:52.705Z,81.04
2018-04-29T05:07:57.233Z,80.91
2018-04-29T05:09:01.792Z,80.98
2018-04-29T05:10:06.646Z,80.99
2018-04-29T05:11:11.249Z,80.94
2018-04-29T05:12:15.847Z,80.86
2018-04-29T05:13:20.395Z,80.87
2018-04-29T05:14:24.944Z,80.78
2018-04-29T05:15:29.492Z,80.83
2018-04-29T05:16:34.283Z,80.84
2018-04-29T05:17:38.845Z,80.89
2018-04-29T05:18:43.499Z,80.82
2018-04-29T05:19:48.074Z,80.64
2018-04-29T05:20:52.665Z,80.52
2018-04-29T05:21:57.237Z,80.50
2018-04-29T05:23:02.235Z,80.39
2018-04-29T05:24:06.819Z,80.29
2018-04-29T05:25:11.365Z,80.14
2018-04-29T05:26:15.892Z,79.91
2018-04-29T05:27:20.564Z,79.66
2018-04-29T05:28:25.211Z,79.67
2018-04-29T05:29:30.210Z,79.55
2018-04-29T05:30:34.757Z,79.47
2018-04-29T05:31:39.455Z,79.38
2018-04-29T05:32:43.990Z,79.29
2018-04-29T05:33:48.544Z,79.15
2018-04-29T05:34:53.037Z,78.99
2018-04-29T05:35:57.854Z,78.82
2018-04-29T05:37:02.389Z,78.65
2018-04-29T05:38:06.859Z,78.51
2018-04-29T05:39:11.318Z,78.43
2018-04-29T05:40:15.778Z,78.41
2018-04-29T05:41:20.870Z,78.44
2018-04-29T05:42:25.743Z,78.40
2018-04-29T05:43:30.165Z,78.35
2018-04-29T05:44:34.647Z,78.28
2018-04-29T05:45:39.270Z,78.23
2018-04-29T05:46:43.814Z,78.23
2018-04-29T05:47:48.427Z,78.14
2018-04-29T05:48:53.547Z,77.98
2018-04-29T05:49:58.217Z,77.97
2018-04-29T05:51:02.785Z,77.90
2018-04-29T05:52:07.392Z,77.78
2018-04-29T05:53:11.965Z,77.65
2018-04-29T05:54:16.470Z,77.85
2018-04-29T05:55:21.505Z,78.14
2018-04-29T05:56:25.974Z,78.16
2018-04-29T05:57:30.449Z,78.25
2018-04-29T05:58:34.970Z,78.06
2018-04-29T05:59:39.435Z,77.77
2018-04-29T06:00:44.099Z,77.55
2018-04-29T06:01:49.122Z,77.42
2018-04-29T06:02:53.668Z,77.33
2018-04-29T06:03:58.909Z,77.19
2018-04-29T06:05:03.488Z,77.05
2018-04-29T06:06:08.541Z,77.06
2018-04-29T06:07:13.162Z,77.03
2018-04-29T06:08:18.185Z,76.94
2018-04-29T06:09:22.736Z,76.73
2018-04-29T06:10:27.285Z,76.57
2018-04-29T06:11:31.835Z,76.44
2018-04-29T06:12:36.408Z,76.32
2018-04-29T06:13:40.961Z,76.25
2018-04-29T06:14:45.878Z,76.64
2018-04-29T06:15:50.395Z,76.97
2018-04-29T06:16:54.914Z,77.02
2018-04-29T06:17:59.462Z,77.11
2018-04-29T06:19:03.974Z,77.12
2018-04-29T06:20:08.458Z,77.23
2018-04-29T06:21:13.273Z,77.30
2018-04-29T06:22:17.770Z,77.56
2018-04-29T06:23:22.238Z,77.41
2018-04-29T06:24:26.669Z,77.23
2018-04-29T06:25:31.868Z,77.21
2018-04-29T06:26:36.345Z,77.14
2018-04-29T06:27:41.165Z,77.03
2018-04-29T06:28:45.610Z,76.86
2018-04-29T06:29:50.070Z,76.64
2018-04-29T06:30:54.607Z,76.41
2018-04-29T06:31:59.130Z,76.29
2018-04-29T06:33:03.723Z,76.13
2018-04-29T06:34:08.513Z,76.18
2018-04-29T06:35:12.972Z,76.24
2018-04-29T06:36:17.497Z,76.59
2018-04-29T06:37:22.111Z,76.57
2018-04-29T06:38:26.695Z,76.63
2018-04-29T06:39:31.529Z,76.77
2018-04-29T06:40:36.077Z,76.77
2018-04-29T06:41:40.670Z,76.87
2018-04-29T06:42:45.233Z,77.05
2018-04-29T06:43:49.889Z,77.17
2018-04-29T06:44:54.420Z,77.21
2018-04-29T06:45:59.349Z,77.19
2018-04-29T06:47:03.930Z,77.17
2018-04-29T06:48:08.553Z,77.16
2018-04-29T06:49:13.134Z,77.15
2018-04-29T06:50:17.689Z,77.12
2018-04-29T06:51:22.226Z,77.04
2018-04-29T06:52:27.298Z,77.11
2018-04-29T06:53:31.852Z,77.26
2018-04-29T06:54:36.419Z,77.23
2018-04-29T06:55:43.246Z,77.23
2018-04-29T06:56:47.805Z,77.21
2018-04-29T06:57:52.394Z,77.20
2018-04-29T06:58:57.467Z,77.12
2018-04-29T07:00:06.495Z,76.94
2018-04-29T07:01:11.114Z,76.91
2018-04-29T07:02:15.877Z,77.01
2018-04-29T07:03:20.430Z,76.93
2018-04-29T07:04:25.579Z,76.75
2018-04-29T07:05:30.490Z,76.71
2018-04-29T07:06:35.029Z,76.54
2018-04-29T07:07:39.732Z,76.33
2018-04-29T07:08:44.251Z,76.27
2018-04-29T07:09:48.879Z,76.19
2018-04-29T07:10:53.436Z,76.12
2018-04-29T07:11:58.433Z,76.08
2018-04-29T07:13:03.146Z,76.07
2018-04-29T07:14:07.751Z,76.00
2018-04-29T07:15:12.263Z,75.94
2018-04-29T07:16:16.848Z,75.73
2018-04-29T07:17:21.408Z,75.37
2018-04-29T07:18:26.498Z,75.10
2018-04-29T07:19:31.099Z,74.91
2018-04-29T07:20:35.819Z,74.60
2018-04-29T07:21:40.386Z,74.20
2018-04-29T07:22:44.851Z,73.81
2018-04-29T07:23:49.278Z,73.61
2018-04-29T07:24:54.101Z,73.52
2018-04-29T07:25:58.662Z,73.52
2018-04-29T07:27:03.241Z,73.41
2018-04-29T07:28:07.822Z,73.32
2018-04-29T07:29:12.448Z,73.33
2018-04-29T07:30:17.013Z,73.36
2018-04-29T07:31:22.068Z,73.28
2018-04-29T07:32:26.644Z,73.06
2018-04-29T07:33:31.220Z,72.92
2018-04-29T07:34:35.756Z,72.60
2018-04-29T07:35:40.496Z,72.17
2018-04-29T07:36:44.857Z,71.97
2018-04-29T07:37:49.571Z,72.11
2018-04-29T07:38:54.040Z,72.13
2018-04-29T07:39:58.501Z,72.25
2018-04-29T07:41:03.106Z,72.43
2018-04-29T07:42:07.674Z,72.48
2018-04-29T07:43:12.154Z,72.66
2018-04-29T07:44:17.026Z,72.97
2018-04-29T07:45:21.410Z,73.26
2018-04-29T07:46:26.020Z,73.06
2018-04-29T07:47:30.556Z,73.18
2018-04-29T07:48:35.193Z,73.43
2018-04-29T07:49:39.790Z,73.73
2018-04-29T07:50:44.713Z,74.20
2018-04-29T07:51:49.181Z,74.56
2018-04-29T07:52:53.679Z,74.76
2018-04-29T07:53:58.172Z,74.75
2018-04-29T07:55:02.692Z,75.08
2018-04-29T07:56:07.178Z,75.22
2018-04-29T07:57:12.063Z,75.50
2018-04-29T07:58:16.549Z,75.90
2018-04-29T07:59:21.062Z,76.41
2018-04-29T08:00:25.571Z,76.88
2018-04-29T08:01:30.055Z,77.21
2018-04-29T08:02:34.567Z,77.43
2018-04-29T08:03:39.528Z,77.47
2018-04-29T08:04:45.205Z,77.47
2018-04-29T08:05:49.675Z,77.49
2018-04-29T08:06:54.144Z,77.43
2018-04-29T08:07:58.662Z,77.56
2018-04-29T08:09:03.214Z,77.77
2018-04-29T08:10:08.084Z,77.88
2018-04-29T08:11:12.642Z,77.65
2018-04-29T08:12:17.111Z,77.50
2018-04-29T08:13:21.702Z,77.13
2018-04-29T08:14:26.248Z,77.08
2018-04-29T08:15:30.865Z,76.87
2018-04-29T08:16:35.821Z,76.77
2018-04-29T08:17:40.367Z,76.95
2018-04-29T08:18:44.949Z,77.21
2018-04-29T08:19:49.535Z,77.44
2018-04-29T08:20:54.084Z,77.54
2018-04-29T08:21:58.646Z,77.41
2018-04-29T08:23:03.855Z,77.18
2018-04-29T08:24:09.044Z,77.13
2018-04-29T08:25:13.649Z,76.90
2018-04-29T08:26:18.177Z,76.83
2018-04-29T08:27:22.695Z,76.75
2018-04-29T08:28:27.203Z,77.02
2018-04-29T08:29:32.222Z,77.42
2018-04-29T08:30:37.396Z,77.47
2018-04-29T08:31:41.963Z,77.33
2018-04-29T08:32:46.625Z,77.51
2018-04-29T08:33:51.228Z,77.73
2018-04-29T08:34:55.840Z,77.67
2018-04-29T08:36:00.752Z,77.62
2018-04-29T08:37:05.367Z,77.86
2018-04-29T08:38:09.932Z,78.03
2018-04-29T08:39:14.519Z,78.15
2018-04-29T08:40:19.281Z,78.12
2018-04-29T08:41:23.864Z,78.10
2018-04-29T08:42:28.866Z,78.29
2018-04-29T08:43:33.504Z,78.13
2018-04-29T08:44:38.058Z,78.43
2018-04-29T08:45:43.461Z,78.96
2018-04-29T08:46:48.084Z,79.23
2018-04-29T08:47:52.697Z,79.30
2018-04-29T08:48:57.559Z,79.36
2018-04-29T08:51:31.137Z,79.28
2018-04-29T08:52:36.328Z,79.37
2018-04-29T08:53:40.906Z,79.41
2018-04-29T08:54:45.572Z,79.34
2018-04-29T08:55:50.637Z,79.10
2018-04-29T08:56:55.274Z,79.06
2018-04-29T08:57:59.879Z,79.03
2018-04-29T08:59:05.031Z,79.00
2018-04-29T09:00:09.965Z,78.82
2018-04-29T09:01:14.560Z,78.93
2018-04-29T09:02:19.142Z,78.67
2018-04-29T09:03:23.627Z,77.79
2018-04-29T09:04:28.234Z,77.49
2018-04-29T09:05:32.709Z,76.93
2018-04-29T09:06:37.215Z,76.72
2018-04-29T09:07:42.194Z,76.31
2018-04-29T09:08:46.699Z,76.01
2018-04-29T09:09:51.207Z,75.93
2018-04-29T09:10:55.736Z,75.68
2018-04-29T09:12:00.218Z,75.66
2018-04-29T09:13:04.740Z,75.15
2018-04-29T09:14:10.459Z,74.73
2018-04-29T09:15:14.977Z,74.27
2018-04-29T09:16:19.504Z,74.04
2018-04-29T09:17:24.014Z,73.77
2018-04-29T09:18:28.536Z,73.26
2018-04-29T09:19:33.101Z,73.20
2018-04-29T09:20:37.994Z,72.53
2018-04-29T09:21:42.885Z,72.12
2018-04-29T09:22:47.430Z,72.03
2018-04-29T09:23:51.957Z,71.27
2018-04-29T09:24:56.517Z,71.32
2018-04-29T09:26:01.112Z,71.06
2018-04-29T09:27:06.207Z,70.79
2018-04-29T09:28:10.665Z,70.02
2018-04-29T09:29:15.206Z,69.54
2018-04-29T09:30:19.730Z,69.12
2018-04-29T09:31:24.172Z,69.08
2018-04-29T09:32:28.774Z,68.96
2018-04-29T09:33:33.960Z,68.78
2018-04-29T09:34:38.585Z,69.02
2018-04-29T09:35:43.132Z,68.88
2018-04-29T09:36:47.922Z,69.51
2018-04-29T09:37:52.624Z,70.39
2018-04-29T09:38:57.298Z,70.58
2018-04-29T09:40:02.404Z,70.37
2018-04-29T09:41:06.789Z,70.54
2018-04-29T09:42:11.129Z,70.35
2018-04-29T09:43:15.481Z,70.36
2018-04-29T09:44:20.040Z,70.09
2018-04-29T09:45:24.543Z,69.97
2018-04-29T09:46:29.099Z,69.65
2018-04-29T09:47:33.607Z,69.71
2018-04-29T09:48:38.332Z,70.09
2018-04-29T09:49:43.546Z,70.36
2018-04-29T09:50:48.172Z,70.33
2018-04-29T09:51:53.251Z,70.44
2018-04-29T09:52:57.854Z,70.15
2018-04-29T09:54:02.501Z,69.80
2018-04-29T09:55:07.039Z,69.42
2018-04-29T09:56:12.300Z,69.47
2018-04-29T09:57:16.930Z,69.52
2018-04-29T09:58:21.903Z,69.75
2018-04-29T09:59:26.503Z,69.62
2018-04-29T10:00:32.035Z,69.64
2018-04-29T10:01:36.664Z,69.89
2018-04-29T10:02:45.707Z,70.37
2018-04-29T10:03:50.240Z,70.07
2018-04-29T10:04:54.825Z,69.68
2018-04-29T10:05:59.490Z,69.61
2018-04-29T10:07:04.884Z,69.61
2018-04-29T10:08:09.469Z,69.43
2018-04-29T10:09:14.049Z,69.27
2018-04-29T10:10:19.070Z,68.80
2018-04-29T10:11:23.634Z,68.39
2018-04-29T10:12:28.114Z,68.24
2018-04-29T10:13:32.629Z,68.01
2018-04-29T10:14:37.112Z,67.71
2018-04-29T10:15:41.642Z,67.27
2018-04-29T10:16:46.753Z,66.71
2018-04-29T10:17:51.301Z,66.80
2018-04-29T10:18:56.992Z,66.19
2018-04-29T10:20:01.526Z,65.71
2018-04-29T10:21:06.061Z,65.45
2018-04-29T10:22:10.644Z,65.50
2018-04-29T10:23:15.568Z,65.13
2018-04-29T10:24:20.131Z,64.56
2018-04-29T10:25:24.604Z,64.47
2018-04-29T10:26:29.128Z,64.74
2018-04-29T10:27:33.670Z,64.45
2018-04-29T10:28:38.099Z,64.04
2018-04-29T10:29:42.907Z,63.65
2018-04-29T10:30:47.368Z,63.37
2018-04-29T10:31:51.966Z,63.27
2018-04-29T10:32:56.561Z,63.36
2018-04-29T10:34:01.039Z,63.70
2018-04-29T10:35:05.643Z,63.68
2018-04-29T10:36:10.657Z,63.40
2018-04-29T10:37:15.867Z,63.02
2018-04-29T10:38:20.417Z,62.46
2018-04-29T10:39:24.978Z,61.92
2018-04-29T10:40:29.493Z,61.68
2018-04-29T10:41:34.094Z,61.30
2018-04-29T10:42:39.104Z,61.25
2018-04-29T10:43:43.605Z,61.74
2018-04-29T10:44:48.211Z,61.67
2018-04-29T10:45:53.409Z,61.33
2018-04-29T10:46:57.994Z,61.05
2018-04-29T10:48:02.510Z,61.23
2018-04-29T10:49:07.520Z,60.91
2018-04-29T10:50:11.991Z,60.95
2018-04-29T10:51:16.532Z,60.78
2018-04-29T10:52:21.067Z,60.22
2018-04-29T10:53:25.570Z,60.49
2018-04-29T10:54:30.046Z,60.37
2018-04-29T10:55:35.108Z,60.30
2018-04-29T10:56:39.745Z,60.17
2018-04-29T10:57:44.369Z,60.32
2018-04-29T10:58:48.888Z,60.54
2018-04-29T10:59:53.406Z,60.69
2018-04-29T11:00:58.028Z,60.59
2018-04-29T11:02:03.110Z,60.36
2018-04-29T11:03:07.784Z,60.33
2018-04-29T11:04:12.381Z,60.31
2018-04-29T11:05:16.906Z,60.45
2018-04-29T11:06:21.421Z,60.48
2018-04-29T11:07:25.930Z,60.77
2018-04-29T11:08:30.502Z,60.70
2018-04-29T11:09:35.057Z,60.55
2018-04-29T11:10:39.572Z,60.19
2018-04-29T11:11:46.256Z,60.01
2018-04-29T11:12:50.797Z,59.52
2018-04-29T11:13:55.739Z,59.37
2018-04-29T11:15:00.342Z,59.27
2018-04-29T11:16:04.911Z,59.06
2018-04-29T11:17:09.452Z,59.00
2018-04-29T11:18:14.068Z,58.62
2018-04-29T11:19:18.745Z,58.69
2018-04-29T11:20:23.623Z,58.72
2018-04-29T11:21:28.417Z,58.67
2018-04-29T11:22:32.945Z,58.73
2018-04-29T11:23:37.560Z,58.64
2018-04-29T11:24:43.305Z,58.50
2018-04-29T11:25:48.108Z,58.35
2018-04-29T11:26:52.999Z,58.47
2018-04-29T11:27:57.640Z,58.37
2018-04-29T11:29:02.239Z,58.21
2018-04-29T11:30:06.860Z,58.00
2018-04-29T11:31:11.502Z,58.13
2018-04-29T11:32:16.111Z,58.06
2018-04-29T11:33:21.665Z,57.96
2018-04-29T11:34:26.298Z,57.95
2018-04-29T11:35:30.829Z,57.96
2018-04-29T11:36:35.318Z,57.87
2018-04-29T11:37:39.771Z,57.68
2018-04-29T11:38:44.217Z,57.46
2018-04-29T11:39:49.167Z,57.30
2018-04-29T11:40:53.633Z,57.16
2018-04-29T11:41:58.239Z,57.15
2018-04-29T11:43:02.843Z,57.17
2018-04-29T11:44:08.521Z,57.14
2018-04-29T11:45:13.522Z,57.09
2018-04-29T11:46:19.016Z,57.07
2018-04-29T11:47:23.677Z,56.96
2018-04-29T11:48:28.250Z,56.96
2018-04-29T11:49:32.847Z,57.05
2018-04-29T11:50:37.539Z,57.22
2018-04-29T11:51:42.605Z,57.04
2018-04-29T11:52:47.180Z,56.91
2018-04-29T11:53:51.867Z,56.77
2018-04-29T11:54:56.422Z,56.79
2018-04-29T11:56:00.980Z,56.60
2018-04-29T11:57:05.640Z,56.64
2018-04-29T11:58:10.745Z,56.41
2018-04-29T11:59:15.385Z,55.92
2018-04-29T12:00:20.040Z,55.62
2018-04-29T12:01:24.635Z,55.43
2018-04-29T12:02:29.277Z,55.21
2018-04-29T12:03:33.916Z,55.26
2018-04-29T12:04:38.917Z,55.11
2018-04-29T12:05:43.538Z,54.89
2018-04-29T12:06:48.162Z,54.97
2018-04-29T12:07:52.755Z,54.45
2018-04-29T12:08:57.716Z,54.60
2018-04-29T12:10:02.327Z,54.26
2018-04-29T12:11:06.968Z,54.34
2018-04-29T12:12:11.667Z,53.92
2018-04-29T12:13:16.344Z,54.15
2018-04-29T12:14:21.015Z,54.21
2018-04-29T12:15:25.482Z,54.20
2018-04-29T12:16:30.097Z,54.04
2018-04-29T12:17:35.097Z,54.26
2018-04-29T12:18:39.781Z,54.22
2018-04-29T12:19:44.488Z,53.99
2018-04-29T12:20:49.126Z,53.98
2018-04-29T12:21:53.788Z,54.01
2018-04-29T12:22:58.363Z,53.96
2018-04-29T12:24:03.393Z,53.98
2018-04-29T12:25:07.978Z,53.99
2018-04-29T12:26:12.575Z,54.11
2018-04-29T12:27:17.222Z,54.25
2018-04-29T12:28:21.866Z,54.24
2018-04-29T12:29:26.483Z,54.51
2018-04-29T12:30:31.546Z,54.32
2018-04-29T12:31:36.181Z,54.53
2018-04-29T12:32:40.786Z,55.76
2018-04-29T12:33:45.461Z,56.78
2018-04-29T12:34:50.286Z,57.89
2018-04-29T12:35:54.919Z,58.32
2018-04-29T12:37:00.093Z,58.10
2018-04-29T12:38:04.692Z,58.65
2018-04-29T12:39:10.095Z,59.43
2018-04-29T12:40:14.728Z,58.90
2018-04-29T12:41:19.380Z,59.09
2018-04-29T12:42:25.064Z,60.87
2018-04-29T12:43:30.147Z,61.76
2018-04-29T12:44:35.684Z,61.64
2018-04-29T12:45:40.309Z,61.93
2018-04-29T12:46:45.484Z,62.47
2018-04-29T12:47:50.020Z,62.67
2018-04-29T12:48:54.573Z,62.34
2018-04-29T12:50:00.115Z,62.07
2018-04-29T12:51:04.746Z,61.68
2018-04-29T12:52:09.321Z,61.73
2018-04-29T12:53:14.550Z,61.69
2018-04-29T12:54:19.161Z,61.78
2018-04-29T12:55:23.784Z,61.57
2018-04-29T12:56:28.747Z,61.01
2018-04-29T12:57:33.950Z,61.03
2018-04-29T12:58:38.529Z,61.27
2018-04-29T12:59:43.114Z,61.07
2018-04-29T13:00:47.776Z,60.87
2018-04-29T13:01:52.355Z,60.97
2018-04-29T13:02:57.241Z,61.07
2018-04-29T13:04:01.837Z,61.02
2018-04-29T13:05:06.435Z,60.71
2018-04-29T13:06:10.955Z,60.99
2018-04-29T13:07:15.421Z,61.36
2018-04-29T13:08:19.907Z,61.88
2018-04-29T13:09:24.890Z,62.52
2018-04-29T13:10:30.131Z,61.52
2018-04-29T13:11:34.858Z,61.01
2018-04-29T13:12:39.374Z,61.42
2018-04-29T13:13:43.937Z,62.29
2018-04-29T13:14:48.567Z,62.69
2018-04-29T13:15:53.623Z,62.41
2018-04-29T13:16:58.165Z,61.87
2018-04-29T13:18:02.935Z,61.61
2018-04-29T13:19:07.501Z,61.20
2018-04-29T13:20:12.062Z,60.64
2018-04-29T13:21:16.630Z,60.47
2018-04-29T13:22:21.694Z,59.98
2018-04-29T13:23:27.141Z,60.22
2018-04-29T13:24:31.649Z,60.41
2018-04-29T13:25:36.220Z,60.48
2018-04-29T13:26:40.813Z,60.41
2018-04-29T13:27:45.367Z,60.25
2018-04-29T13:28:50.355Z,60.24
2018-04-29T13:29:54.926Z,60.66
2018-04-29T13:30:59.479Z,60.76
2018-04-29T13:32:04.163Z,60.83
2018-04-29T13:33:08.770Z,61.33
2018-04-29T13:34:13.491Z,61.45
2018-04-29T13:35:18.502Z,61.27
2018-04-29T13:36:23.430Z,60.83
2018-04-29T13:37:28.116Z,59.66
2018-04-29T13:38:32.683Z,59.18
2018-04-29T13:39:37.100Z,58.23
2018-04-29T13:40:41.545Z,57.82
2018-04-29T13:41:46.453Z,57.47
2018-04-29T13:42:50.891Z,56.94
2018-04-29T13:43:55.447Z,56.21
2018-04-29T13:45:00.129Z,55.29
2018-04-29T13:46:04.697Z,54.03
2018-04-29T13:47:09.790Z,53.75
2018-04-29T13:48:14.393Z,53.56
2018-04-29T13:49:18.991Z,53.47
2018-04-29T13:50:24.122Z,53.31
2018-04-29T13:51:28.719Z,53.84
2018-04-29T13:52:34.156Z,53.54
2018-04-29T13:53:39.225Z,53.37
2018-04-29T13:54:43.885Z,53.18
2018-04-29T13:55:48.443Z,52.57
2018-04-29T13:56:53.081Z,52.00
2018-04-29T13:57:57.760Z,51.72
2018-04-29T13:59:02.336Z,51.64
2018-04-29T14:00:07.268Z,51.54